Time;durP1;ratioP1;P1;durP2;ratioP2;P2;SDS_P1;SDS_P2;PMS_P1;PMS_P2;Temp;Humidity;BMP_temperature;BMP_pressure;BME280_temperature;BME280_humidity;BME280_pressure;Samples;Min_cycle;Max_cycle;Signal;HPM_P1;HPM_P2
2023/04/06 00:00:49;;;;;;;6.50;5.60;;;4.90;97.60;;;;;;6068776;23;92477;-77
2023/04/06 00:03:16;;;;;;;11.95;6.03;;;4.90;97.80;;;;;;6045549;23;92432;-77
2023/04/06 00:05:43;;;;;;;7.93;5.78;;;4.80;98.00;;;;;;6068827;23;95838;-76
2023/04/06 00:08:11;;;;;;;9.07;6.05;;;4.80;98.20;;;;;;6044433;23;95675;-77
2023/04/06 00:10:38;;;;;;;7.45;6.35;;;4.80;98.30;;;;;;6069637;23;92442;-77
2023/04/06 00:13:05;;;;;;;7.07;5.72;;;4.80;98.60;;;;;;6069137;23;92203;-77
2023/04/06 00:15:33;;;;;;;7.50;6.18;;;4.70;98.80;;;;;;6068375;23;96152;-77
2023/04/06 00:18:00;;;;;;;7.53;6.38;;;4.70;99.00;;;;;;6068491;23;94443;-77
2023/04/06 00:20:27;;;;;;;7.50;5.65;;;4.70;99.00;;;;;;6068298;23;95510;-77
2023/04/06 00:22:54;;;;;;;8.73;6.10;;;4.70;99.20;;;;;;6096191;23;92406;-77
2023/04/06 00:25:21;;;;;;;8.30;6.03;;;4.70;99.30;;;;;;6096243;23;92430;-77
2023/04/06 00:27:48;;;;;;;8.50;6.57;;;4.60;99.40;;;;;;6021877;23;93004;-77
2023/04/06 00:30:15;;;;;;;6.78;6.07;;;4.60;99.60;;;;;;6094553;23;92749;-77
2023/04/06 00:32:42;;;;;;;6.60;6.00;;;4.60;99.70;;;;;;6070014;23;92458;-77
2023/04/06 00:35:09;;;;;;;8.02;6.05;;;4.50;99.90;;;;;;6045631;23;95913;-77
2023/04/06 00:37:36;;;;;;;7.18;5.68;;;4.50;99.90;;;;;;6070924;23;93233;-77
2023/04/06 00:40:03;;;;;;;7.28;5.50;;;4.50;99.90;;;;;;6046014;23;92889;-77
2023/04/06 00:42:30;;;;;;;9.25;5.90;;;4.50;99.90;;;;;;6069947;23;95980;-77
2023/04/06 00:44:59;;;;;;;7.47;6.57;;;4.50;99.90;;;;;;6043918;23;96754;-77
2023/04/06 00:47:27;;;;;;;8.98;6.35;;;4.50;99.90;;;;;;6069818;23;97963;-77
2023/04/06 00:49:55;;;;;;;7.93;6.38;;;4.50;99.90;;;;;;6070505;23;92381;-77
2023/04/06 00:52:22;;;;;;;8.55;5.88;;;4.40;99.90;;;;;;6070077;23;92868;-77
2023/04/06 00:54:50;;;;;;;8.30;6.00;;;4.40;99.90;;;;;;6045751;23;95618;-77
2023/04/06 00:57:19;;;;;;;8.60;5.85;;;4.40;99.90;;;;;;6045880;23;95402;-76
2023/04/06 00:59:53;;;;;;;10.85;6.18;;;4.30;99.90;;;;;;6069955;23;92363;-77
2023/04/06 01:02:20;;;;;;;6.28;5.60;;;4.30;99.90;;;;;;6046280;23;92164;-77
2023/04/06 01:04:51;;;;;;;7.32;6.07;;;4.30;99.90;;;;;;6047573;23;95847;-76
2023/04/06 01:07:30;;;;;;;8.35;6.22;;;4.30;99.90;;;;;;6048137;23;95123;-77
2023/04/06 01:10:25;;;;;;;6.10;5.28;;;4.20;99.90;;;;;;6068589;23;94825;-76
2023/04/06 01:12:57;;;;;;;6.93;5.95;;;4.20;99.90;;;;;;6069950;23;92442;-77
2023/04/06 01:15:45;;;;;;;9.05;5.97;;;4.20;99.90;;;;;;6094795;23;93243;-77
2023/04/06 01:18:16;;;;;;;6.78;5.32;;;4.10;99.90;;;;;;6046241;23;93924;-77
2023/04/06 01:20:52;;;;;;;8.90;6.35;;;4.10;99.90;;;;;;6025415;23;92420;-77
2023/04/06 01:23:20;;;;;;;9.80;6.18;;;4.10;99.90;;;;;;6069653;23;92522;-76
2023/04/06 01:25:47;;;;;;;6.32;5.70;;;4.10;99.90;;;;;;6069693;23;95703;-77
2023/04/06 01:28:14;;;;;;;7.90;5.72;;;4.10;99.90;;;;;;6045731;23;95485;-77
2023/04/06 01:30:52;;;;;;;6.97;5.93;;;4.00;99.90;;;;;;6069775;23;92395;-77
2023/04/06 01:33:58;;;;;;;9.07;6.22;;;4.00;99.90;;;;;;6082395;23;92414;-77
2023/04/06 01:36:26;;;;;;;8.43;6.30;;;4.00;99.90;;;;;;6044338;23;98401;-77
2023/04/06 01:39:17;;;;;;;8.38;5.38;;;4.00;99.90;;;;;;6069472;23;97566;-76
2023/04/06 01:41:47;;;;;;;10.45;6.43;;;4.00;99.90;;;;;;6069934;23;92362;-77
2023/04/06 01:44:18;;;;;;;7.90;7.07;;;3.90;99.90;;;;;;6046456;23;92824;-76
2023/04/06 01:46:50;;;;;;;8.07;6.28;;;3.90;99.90;;;;;;6046892;23;95710;-77
2023/04/06 01:49:18;;;;;;;7.05;6.00;;;3.90;99.90;;;;;;6069359;23;94979;-77
2023/04/06 01:51:51;;;;;;;7.97;6.65;;;3.90;99.90;;;;;;6024021;23;92602;-77
2023/04/06 01:54:18;;;;;;;7.63;6.43;;;3.90;99.90;;;;;;6070747;23;91725;-76
2023/04/06 01:56:58;;;;;;;7.15;6.45;;;3.90;99.90;;;;;;6069502;23;94164;-77
2023/04/06 01:59:31;;;;;;;6.95;6.05;;;3.80;99.90;;;;;;6046933;23;95362;-77
2023/04/06 02:02:03;;;;;;;7.53;6.07;;;3.80;99.90;;;;;;6045083;23;95286;-76
2023/04/06 02:04:32;;;;;;;6.88;6.13;;;3.80;99.90;;;;;;6069664;23;92491;-76
2023/04/06 02:07:08;;;;;;;7.30;6.00;;;3.80;99.90;;;;;;6047176;23;95219;-77
2023/04/06 02:09:35;;;;;;;8.65;6.88;;;3.80;99.90;;;;;;6045371;23;95288;-76
2023/04/06 02:12:04;;;;;;;6.07;5.45;;;3.70;99.90;;;;;;6069483;23;92409;-76
2023/04/06 02:14:33;;;;;;;7.55;6.47;;;3.70;99.90;;;;;;6069267;23;92479;-76
2023/04/06 02:17:00;;;;;;;6.85;6.20;;;3.70;99.90;;;;;;6069445;23;95743;-76
2023/04/06 02:19:27;;;;;;;7.32;6.43;;;3.70;99.90;;;;;;6021980;23;95469;-77
2023/04/06 02:21:54;;;;;;;7.50;6.32;;;3.70;99.90;;;;;;6070495;23;92992;-76
2023/04/06 02:24:22;;;;;;;8.23;6.30;;;3.60;99.90;;;;;;6069136;23;92538;-76
2023/04/06 02:26:49;;;;;;;8.10;6.32;;;3.60;99.90;;;;;;6043743;23;98382;-76
2023/04/06 02:29:16;;;;;;;8.95;6.20;;;3.60;99.90;;;;;;6069173;23;97578;-76
2023/04/06 02:31:44;;;;;;;6.97;5.93;;;3.60;99.90;;;;;;6069706;23;92423;-77
2023/04/06 02:34:17;;;;;;;10.20;6.07;;;3.60;99.90;;;;;;6070003;23;92681;-77
2023/04/06 02:36:47;;;;;;;6.65;5.43;;;3.60;99.90;;;;;;6069168;23;95356;-77
2023/04/06 02:39:15;;;;;;;7.50;6.20;;;3.50;99.90;;;;;;6044885;23;95701;-76
2023/04/06 02:41:42;;;;;;;7.00;5.90;;;3.50;99.90;;;;;;6069526;23;92477;-77
2023/04/06 02:44:10;;;;;;;7.88;5.90;;;3.50;99.90;;;;;;6068976;23;91704;-76
2023/04/06 02:46:41;;;;;;;9.50;7.00;;;3.50;99.90;;;;;;6046390;23;95683;-76
2023/04/06 02:49:08;;;;;;;7.43;5.13;;;3.50;99.90;;;;;;6069069;23;95675;-77
2023/04/06 02:51:35;;;;;;;7.30;6.32;;;3.40;99.90;;;;;;6044095;23;94843;-76
2023/04/06 02:54:31;;;;;;;8.65;6.63;;;3.40;99.90;;;;;;6085221;23;92441;-76
2023/04/06 02:57:00;;;;;;;9.45;6.18;;;3.40;99.90;;;;;;6045551;23;95627;-76
2023/04/06 02:59:36;;;;;;;7.78;6.25;;;3.40;99.90;;;;;;6047234;23;95344;-76
2023/04/06 03:02:21;;;;;;;6.97;5.95;;;3.40;99.90;;;;;;6069228;23;92531;-76
2023/04/06 03:04:48;;;;;;;7.00;5.90;;;3.40;99.90;;;;;;6069696;23;92431;-76
2023/04/06 03:07:22;;;;;;;;;;;3.30;99.90;;;;;;6047175;23;95778;-76
2023/04/06 03:09:49;;;;;;;6.47;5.75;;;3.30;99.90;;;;;;6071329;23;94812;-76
2023/04/06 03:12:17;;;;;;;8.38;6.15;;;3.20;99.90;;;;;;6021746;23;92388;-76
2023/04/06 03:15:03;;;;;;;7.75;5.63;;;3.20;99.90;;;;;;6073804;23;92509;-76
2023/04/06 03:17:30;;;;;;;6.30;5.70;;;3.20;99.90;;;;;;6067775;23;98352;-76
2023/04/06 03:20:01;;;;;;;7.72;6.40;;;3.20;99.90;;;;;;6068977;23;96247;-76
2023/04/06 03:22:30;;;;;;;10.00;6.57;;;3.20;99.90;;;;;;6069584;23;92511;-76
2023/04/06 03:24:57;;;;;;;10.10;6.93;;;3.20;99.90;;;;;;6069221;23;92535;-76
2023/04/06 03:27:25;;;;;;;7.25;6.22;;;3.20;99.90;;;;;;6044997;23;95497;-76
2023/04/06 03:29:52;;;;;;;10.38;6.30;;;3.20;99.90;;;;;;6045023;23;93979;-76
2023/04/06 03:32:26;;;;;;;8.30;6.75;;;3.20;99.90;;;;;;6069077;23;93097;-76
2023/04/06 03:34:53;;;;;;;6.43;5.82;;;3.20;99.90;;;;;;6069895;23;92596;-76
2023/04/06 03:37:20;;;;;;;7.32;5.97;;;3.20;99.90;;;;;;6069272;23;93064;-76
2023/04/06 03:39:52;;;;;;;7.22;5.90;;;3.20;99.90;;;;;;6047474;23;95367;-77
2023/04/06 03:42:22;;;;;;;9.80;6.60;;;3.10;99.90;;;;;;6044524;23;94809;-76
2023/04/06 03:44:56;;;;;;;;;;;3.10;99.90;;;;;;6047069;23;92535;-76
2023/04/06 03:47:24;;;;;;;9.50;6.95;;;3.10;99.90;;;;;;6070041;23;95212;-77
2023/04/06 03:49:56;;;;;;;8.02;6.10;;;3.00;99.90;;;;;;6047175;23;95552;-77
2023/04/06 03:52:23;;;;;;;7.07;6.40;;;3.00;99.90;;;;;;6044717;23;92414;-77
2023/04/06 03:54:51;;;;;;;7.45;6.43;;;3.00;99.90;;;;;;6021976;23;92455;-77
2023/04/06 03:57:18;;;;;;;8.73;6.95;;;3.00;99.90;;;;;;6044136;23;95660;-77
2023/04/06 03:59:45;;;;;;;6.68;5.65;;;3.00;99.90;;;;;;6045258;23;95923;-77
2023/04/06 04:02:12;;;;;;;7.97;6.68;;;3.00;99.90;;;;;;6069720;23;92464;-77
2023/04/06 04:04:39;;;;;;;7.03;6.30;;;2.90;99.90;;;;;;6044775;23;92439;-77
2023/04/06 04:07:06;;;;;;;9.45;7.45;;;2.90;99.90;;;;;;6067806;23;96604;-77
2023/04/06 04:09:34;;;;;;;8.02;6.43;;;2.90;99.90;;;;;;6044501;23;98037;-77
2023/04/06 04:12:01;;;;;;;7.13;6.03;;;2.90;99.90;;;;;;6095392;23;92446;-77
2023/04/06 04:14:29;;;;;;;9.48;7.05;;;2.90;99.90;;;;;;6044669;23;92732;-77
2023/04/06 04:16:56;;;;;;;8.85;7.18;;;2.90;99.90;;;;;;6068433;23;95547;-77
2023/04/06 04:19:23;;;;;;;7.25;6.50;;;2.90;99.90;;;;;;6068485;23;95387;-77
2023/04/06 04:21:50;;;;;;;7.65;6.80;;;2.90;99.90;;;;;;6068830;23;92462;-77
2023/04/06 04:24:24;;;;;;;7.95;6.85;;;2.90;99.90;;;;;;6046435;23;91752;-77
2023/04/06 04:26:51;;;;;;;8.48;6.30;;;2.90;99.90;;;;;;6020617;23;96143;-77
2023/04/06 04:29:21;;;;;;;9.00;7.05;;;2.80;99.90;;;;;;6044565;23;94016;-77
2023/04/06 04:31:50;;;;;;;9.93;7.32;;;2.70;99.90;;;;;;6044172;23;95438;-77
2023/04/06 04:34:19;;;;;;;9.35;7.63;;;2.70;99.90;;;;;;6069027;23;92535;-77
2023/04/06 04:36:46;;;;;;;8.05;6.70;;;2.70;99.90;;;;;;6044043;23;95944;-77
2023/04/06 04:39:21;;;;;;;8.05;6.75;;;2.70;99.90;;;;;;6045640;23;93953;-77
2023/04/06 04:41:56;;;;;;;10.23;6.90;;;2.60;99.90;;;;;;6046055;23;92445;-77
2023/04/06 04:44:24;;;;;;;7.93;6.63;;;2.60;99.90;;;;;;6068437;23;92566;-77
2023/04/06 04:46:51;;;;;;;8.93;7.45;;;2.60;99.90;;;;;;6094687;23;93206;-77
2023/04/06 04:49:22;;;;;;;7.32;6.43;;;2.60;99.90;;;;;;6045091;23;93880;-77
2023/04/06 04:51:52;;;;;;;10.85;7.57;;;2.60;99.90;;;;;;6068626;23;92936;-77
2023/04/06 04:54:26;;;;;;;11.40;7.85;;;2.60;99.90;;;;;;6046074;23;93092;-77
2023/04/06 04:56:53;;;;;;;9.68;8.30;;;2.60;99.90;;;;;;6042657;23;98478;-77
2023/04/06 04:59:35;;;;;;;10.20;8.15;;;2.60;99.90;;;;;;6067986;23;97599;-77
2023/04/06 05:02:10;;;;;;;10.07;7.30;;;2.70;99.90;;;;;;6068445;23;92401;-77
2023/04/06 05:04:51;;;;;;;12.38;8.15;;;2.70;99.90;;;;;;6047139;23;92475;-77
2023/04/06 05:07:22;;;;;;;9.70;7.60;;;2.70;99.90;;;;;;6069407;23;95767;-77
2023/04/06 05:09:51;;;;;;;8.35;7.45;;;2.70;99.90;;;;;;6045877;23;95228;-77
2023/04/06 05:12:20;;;;;;;12.32;7.95;;;2.80;99.90;;;;;;6045974;23;92510;-77
2023/04/06 05:14:58;;;;;;;8.98;7.85;;;2.80;99.90;;;;;;6048006;23;91768;-77
2023/04/06 05:17:25;;;;;;;9.23;7.38;;;2.90;99.90;;;;;;6069990;23;95558;-77
2023/04/06 05:19:52;;;;;;;9.65;7.45;;;3.00;99.90;;;;;;6069738;23;95455;-77
2023/04/06 05:22:23;;;;;;;9.48;7.30;;;3.00;99.90;;;;;;6022187;23;94910;-77
2023/04/06 05:25:02;;;;;;;11.32;7.90;;;3.00;99.90;;;;;;6049993;23;92399;-77
2023/04/06 05:27:30;;;;;;;11.60;8.40;;;3.10;99.90;;;;;;6069365;23;95331;-77
2023/04/06 05:30:00;;;;;;;8.35;7.35;;;3.10;99.90;;;;;;6069512;23;94424;-77
2023/04/06 05:32:29;;;;;;;8.75;7.55;;;3.20;99.90;;;;;;6069436;23;92508;-77
2023/04/06 05:34:56;;;;;;;9.93;7.50;;;3.30;99.90;;;;;;6067695;23;92561;-77
2023/04/06 05:37:24;;;;;;;8.30;7.40;;;3.30;99.90;;;;;;6069662;23;95381;-77
2023/04/06 05:39:51;;;;;;;9.57;8.52;;;3.40;99.90;;;;;;6068819;23;95224;-77
2023/04/06 05:42:19;;;;;;;9.20;7.38;;;3.50;99.90;;;;;;6045784;23;92503;-77
2023/04/06 05:44:51;;;;;;;9.35;8.32;;;3.50;99.90;;;;;;6047544;23;92531;-77
2023/04/06 05:47:18;;;;;;;10.98;8.32;;;3.60;99.90;;;;;;6044142;23;97966;-77
2023/04/06 05:49:50;;;;;;;9.82;7.95;;;3.70;99.90;;;;;;6069342;23;97734;-77
2023/04/06 05:52:26;;;;;;;8.95;7.30;;;3.70;99.90;;;;;;6069679;23;92430;-77
2023/04/06 05:54:54;;;;;;;10.02;8.13;;;3.80;99.90;;;;;;6069981;23;92575;-77
2023/04/06 05:57:21;;;;;;;13.15;7.95;;;3.90;99.90;;;;;;6069791;23;95719;-77
2023/04/06 05:59:49;;;;;;;12.20;8.90;;;3.90;99.90;;;;;;6045325;23;95377;-77
2023/04/06 06:02:16;;;;;;;11.05;8.20;;;4.00;99.90;;;;;;6069830;23;92433;-76
2023/04/06 06:04:47;;;;;;;8.82;8.02;;;4.10;99.90;;;;;;6046538;23;91722;-77
2023/04/06 06:07:15;;;;;;;9.35;7.75;;;4.30;99.90;;;;;;6069878;23;96087;-76
2023/04/06 06:09:47;;;;;;;10.43;8.70;;;4.50;99.90;;;;;;6045919;23;94096;-77
2023/04/06 06:12:20;;;;;;;12.85;7.85;;;4.70;99.90;;;;;;6045659;23;95521;-77
2023/04/06 06:14:49;;;;;;;11.00;7.40;;;4.90;99.90;;;;;;6045195;23;92413;-77
2023/04/06 06:17:16;;;;;;;8.27;7.38;;;5.00;99.70;;;;;;6045226;23;95516;-76
2023/04/06 06:19:45;;;;;;;11.48;8.70;;;5.30;99.80;;;;;;6069819;23;93186;-77
2023/04/06 06:22:12;;;;;;;9.32;7.60;;;5.80;99.30;;;;;;6021375;23;92465;-76
2023/04/06 06:24:43;;;;;;;10.20;7.60;;;6.50;98.50;;;;;;6046135;23;92348;-76
2023/04/06 06:27:11;;;;;;;7.57;6.82;;;7.10;97.30;;;;;;6068220;23;95404;-77
2023/04/06 06:29:38;;;;;;;9.85;8.05;;;7.50;96.30;;;;;;6069650;23;95472;-77
2023/04/06 06:32:05;;;;;;;9.23;8.27;;;7.90;95.60;;;;;;6069648;23;92408;-77
2023/04/06 06:34:33;;;;;;;9.45;8.30;;;8.50;95.00;;;;;;6069460;23;92410;-77
2023/04/06 06:37:03;;;;;;;12.02;8.60;;;9.10;94.50;;;;;;6021336;23;97805;-77
2023/04/06 06:39:30;;;;;;;9.23;7.80;;;9.50;93.20;;;;;;6069579;23;97735;-77
2023/04/06 06:42:00;;;;;;;9.00;8.10;;;9.90;92.10;;;;;;6045327;23;92403;-77
2023/04/06 06:44:44;;;;;;;8.70;7.68;;;10.20;90.90;;;;;;6048664;23;92460;-77
2023/04/06 06:47:11;;;;;;;8.95;8.05;;;10.30;90.60;;;;;;6069533;23;94254;-76
2023/04/06 06:49:38;;;;;;;9.45;7.68;;;10.20;90.40;;;;;;6095432;23;92856;-77
2023/04/06 06:52:05;;;;;;;11.07;8.63;;;10.30;90.10;;;;;;6069466;23;92644;-76
2023/04/06 06:54:32;;;;;;;9.18;8.27;;;10.50;89.80;;;;;;6069832;23;91592;-77
2023/04/06 06:57:00;;;;;;;10.68;8.32;;;10.80;88.50;;;;;;6044977;23;96036;-77
2023/04/06 06:59:27;;;;;;;9.30;8.30;;;11.00;86.80;;;;;;6069352;23;95180;-77
2023/04/06 07:01:55;;;;;;;9.18;8.27;;;11.30;85.80;;;;;;6067903;23;94908;-77
2023/04/06 07:04:22;;;;;;;9.18;8.30;;;11.50;84.80;;;;;;6069482;23;92358;-76
2023/04/06 07:06:50;;;;;;;9.85;8.93;;;11.40;84.20;;;;;;6068867;23;95641;-76
2023/04/06 07:09:18;;;;;;;9.32;8.30;;;11.30;85.40;;;;;;6045331;23;95604;-77
2023/04/06 07:11:45;;;;;;;10.70;8.70;;;11.40;84.50;;;;;;6045206;23;92472;-77
2023/04/06 07:14:12;;;;;;;9.88;8.52;;;11.60;84.10;;;;;;6045343;23;92391;-77
2023/04/06 07:16:39;;;;;;;10.95;8.80;;;11.70;83.20;;;;;;6016108;23;95861;-77
2023/04/06 07:19:06;;;;;;;9.80;8.70;;;11.90;82.60;;;;;;6064738;23;95587;-76
2023/04/06 07:21:33;;;;;;;11.90;9.30;;;12.00;81.50;;;;;;6064683;23;92433;-76
2023/04/06 07:24:01;;;;;;;10.60;8.48;;;11.90;80.60;;;;;;6064305;23;92372;-76
2023/04/06 07:26:28;;;;;;;8.90;8.00;;;11.80;80.80;;;;;;6087222;23;98613;-76
2023/04/06 07:28:56;;;;;;;10.38;9.07;;;11.70;80.70;;;;;;6039710;23;97828;-76
2023/04/06 07:31:24;;;;;;;10.90;9.77;;;11.80;81.10;;;;;;6064553;23;92880;-76
2023/04/06 07:33:52;;;;;;;10.55;9.60;;;12.00;80.40;;;;;;6064041;23;92490;-76
2023/04/06 07:36:20;;;;;;;10.07;9.15;;;12.10;80.00;;;;;;6088997;23;95686;-76
2023/04/06 07:38:48;;;;;;;9.60;8.60;;;12.40;78.70;;;;;;6063859;23;95586;-76
2023/04/06 07:41:16;;;;;;;10.13;9.32;;;12.50;78.30;;;;;;6064371;23;92353;-76
2023/04/06 07:43:44;;;;;;;9.75;8.85;;;12.70;78.10;;;;;;6064634;23;91613;-76
2023/04/06 07:46:11;;;;;;;9.13;8.43;;;13.00;76.70;;;;;;6064193;23;95505;-76
2023/04/06 07:48:38;;;;;;;10.13;9.13;;;13.20;75.60;;;;;;6064378;23;95443;-76
2023/04/06 07:51:07;;;;;;;10.77;8.75;;;13.40;75.50;;;;;;6062887;23;95215;-76
2023/04/06 07:53:37;;;;;;;10.35;9.40;;;13.70;74.70;;;;;;6041057;23;92432;-76
2023/04/06 07:56:05;;;;;;;10.48;9.57;;;14.00;73.80;;;;;;6063879;23;95497;-76
2023/04/06 07:58:32;;;;;;;11.18;10.23;;;14.10;73.00;;;;;;6065695;23;93829;-76
2023/04/06 08:00:59;;;;;;;11.13;10.15;;;14.20;73.00;;;;;;6088141;23;92972;-76
2023/04/06 08:03:26;;;;;;;11.77;10.77;;;14.60;71.80;;;;;;6065080;23;92381;-76
2023/04/06 08:05:53;;;;;;;11.02;10.05;;;14.80;70.60;;;;;;6064643;23;93286;-76
2023/04/06 08:08:21;;;;;;;10.60;9.60;;;15.10;69.50;;;;;;6063567;23;93792;-76
2023/04/06 08:10:48;;;;;;;11.50;10.50;;;15.50;69.80;;;;;;6063884;23;92392;-76
2023/04/06 08:13:16;;;;;;;10.85;9.95;;;16.00;68.40;;;;;;6063359;23;92471;-76
2023/04/06 08:15:43;;;;;;;11.43;10.23;;;16.50;67.10;;;;;;6086564;23;95618;-76
2023/04/06 08:18:42;;;;;;;11.20;10.30;;;17.00;65.80;;;;;;6064673;23;95258;-76
2023/04/06 08:21:09;;;;;;;12.77;11.45;;;17.70;62.90;;;;;;6063557;23;92307;-76
2023/04/06 08:23:35;;;;;;;11.65;10.73;;;17.90;62.90;;;;;;6039398;23;92845;-76
2023/04/06 08:26:02;;;;;;;13.63;11.13;;;18.10;62.10;;;;;;6038799;23;95667;-76
2023/04/06 08:28:29;;;;;;;12.02;10.82;;;18.30;61.20;;;;;;6064874;23;92918;-77
2023/04/06 08:30:56;;;;;;;12.85;11.95;;;18.50;60.80;;;;;;6087489;23;92441;-77
2023/04/06 08:33:23;;;;;;;12.50;11.25;;;18.60;60.20;;;;;;6088585;23;91956;-77
2023/04/06 08:35:51;;;;;;;13.43;12.05;;;18.50;59.30;;;;;;6087365;23;93155;-77
2023/04/06 08:38:18;;;;;;;12.57;11.48;;;18.50;59.90;;;;;;6087592;23;92800;-77
2023/04/06 08:40:47;;;;;;;10.48;9.50;;;18.40;59.30;;;;;;6063393;23;94774;-77
2023/04/06 08:43:16;;;;;;;10.52;9.52;;;18.30;59.50;;;;;;6066765;23;92400;-77
2023/04/06 08:45:44;;;;;;;10.77;9.65;;;18.10;58.80;;;;;;6064752;23;93193;-77
2023/04/06 08:48:12;;;;;;;11.15;10.13;;;17.90;59.00;;;;;;6064734;23;95869;-77
2023/04/06 08:50:40;;;;;;;11.15;9.85;;;17.40;58.80;;;;;;6065064;23;92690;-76
2023/04/06 08:53:08;;;;;;;14.85;9.85;;;16.80;61.00;;;;;;6089612;23;92468;-77
2023/04/06 08:55:35;;;;;;;12.32;10.07;;;16.40;61.30;;;;;;6040659;23;94345;-77
2023/04/06 08:58:06;;;;;;;11.00;9.90;;;15.90;62.00;;;;;;6066200;23;93069;-77
2023/04/06 09:00:37;;;;;;;11.93;10.27;;;15.20;62.40;;;;;;6040781;23;92407;-76
2023/04/06 09:03:06;;;;;;;12.80;10.57;;;14.70;63.30;;;;;;6089009;23;92364;-76
2023/04/06 09:05:33;;;;;;;10.77;9.57;;;14.30;64.60;;;;;;6062989;23;95618;-77
2023/04/06 09:08:00;;;;;;;11.60;10.48;;;13.80;65.00;;;;;;6064573;23;98021;-76
2023/04/06 09:10:28;;;;;;;12.98;10.02;;;13.50;65.50;;;;;;6064598;23;92465;-76
2023/04/06 09:13:06;;;;;;;11.35;10.10;;;13.10;65.80;;;;;;6088454;23;92444;-76
2023/04/06 09:15:34;;;;;;;11.70;10.27;;;13.10;67.00;;;;;;6071867;23;93096;-76
2023/04/06 09:18:01;;;;;;;11.23;9.43;;;12.80;67.20;;;;;;6095238;23;92377;-76
2023/04/06 09:20:28;;;;;;;11.27;9.75;;;12.70;67.30;;;;;;6096489;23;92362;-76
2023/04/06 09:22:55;;;;;;;12.98;10.05;;;12.80;67.20;;;;;;6070467;23;91737;-76
2023/04/06 09:25:26;;;;;;;10.63;9.18;;;12.70;67.30;;;;;;6095282;23;93163;-77
2023/04/06 09:28:01;;;;;;;13.20;8.48;;;12.70;67.50;;;;;;6096141;23;92961;-76
2023/04/06 09:30:29;;;;;;;10.93;8.63;;;12.80;67.10;;;;;;6068360;23;94789;-76
2023/04/06 09:32:58;;;;;;;12.35;9.38;;;12.80;66.70;;;;;;6070126;23;92503;-76
2023/04/06 09:35:26;;;;;;;10.15;8.20;;;12.80;66.50;;;;;;6046654;23;93093;-77
2023/04/06 09:37:54;;;;;;;10.32;9.32;;;12.80;65.90;;;;;;6045663;23;95491;-76
2023/04/06 09:40:22;;;;;;;10.90;8.85;;;12.80;65.90;;;;;;6070077;23;92387;-76
2023/04/06 09:42:52;;;;;;;11.98;9.32;;;12.90;66.30;;;;;;6070263;23;92500;-77
2023/04/06 09:45:20;;;;;;;10.77;8.20;;;13.00;65.90;;;;;;6095621;23;93316;-76
2023/04/06 09:47:47;;;;;;;9.18;8.00;;;13.00;65.70;;;;;;6070638;23;92959;-76
2023/04/06 09:50:16;;;;;;;10.52;9.23;;;13.00;66.20;;;;;;6045951;23;92490;-76
2023/04/06 09:52:51;;;;;;;13.13;9.15;;;13.20;66.30;;;;;;6070537;23;92852;-76
2023/04/06 09:55:43;;;;;;;12.80;10.88;;;13.30;64.70;;;;;;6094060;23;95328;-76
2023/04/06 09:58:14;;;;;;;14.98;11.13;;;13.30;64.40;;;;;;6069006;23;96689;-76
2023/04/06 10:01:06;;;;;;;11.57;9.60;;;13.30;64.20;;;;;;6095637;23;92874;-76
2023/04/06 10:03:47;;;;;;;12.48;11.15;;;13.50;66.60;;;;;;6045426;23;92405;-76
2023/04/06 10:06:17;;;;;;;11.30;9.13;;;13.60;66.10;;;;;;6094970;23;92929;-76
2023/04/06 10:08:47;;;;;;;14.00;11.02;;;13.70;65.50;;;;;;6069780;23;95572;-76
2023/04/06 10:11:15;;;;;;;12.30;11.10;;;13.90;65.70;;;;;;6068753;23;92934;-76
2023/04/06 10:13:44;;;;;;;10.77;9.77;;;14.00;65.20;;;;;;6069296;23;91613;-76
2023/04/06 10:16:14;;;;;;;16.45;12.25;;;14.20;66.10;;;;;;6069212;23;93018;-76
2023/04/06 10:18:48;;;;;;;13.60;12.18;;;14.40;65.90;;;;;;6069188;23;95785;-76
2023/04/06 10:21:20;;;;;;;12.50;10.32;;;14.60;65.50;;;;;;6093698;23;94737;-76
2023/04/06 10:23:53;;;;;;;14.00;11.95;;;14.70;64.90;;;;;;6069333;23;92950;-76
2023/04/06 10:26:21;;;;;;;17.10;11.43;;;15.00;65.90;;;;;;6068674;23;95887;-76
2023/04/06 10:28:49;;;;;;;15.82;11.55;;;15.10;64.80;;;;;;6095000;23;93178;-76
2023/04/06 10:31:26;;;;;;;13.85;12.38;;;15.20;64.20;;;;;;6069171;23;92378;-76
2023/04/06 10:34:02;;;;;;;17.70;13.73;;;15.10;62.60;;;;;;6095307;23;92469;-76
2023/04/06 10:36:34;;;;;;;16.40;12.85;;;15.20;63.40;;;;;;6068741;23;95955;-76
2023/04/06 10:39:06;;;;;;;16.83;12.73;;;15.20;62.20;;;;;;6069622;23;92983;-76
2023/04/06 10:41:40;;;;;;;14.95;13.10;;;15.40;63.40;;;;;;6095320;23;92756;-76
2023/04/06 10:44:07;;;;;;;16.23;12.45;;;15.60;62.40;;;;;;6094766;23;92420;-77
2023/04/06 10:46:34;;;;;;;16.23;12.88;;;15.90;62.50;;;;;;6043118;23;98170;-76
2023/04/06 10:49:12;;;;;;;16.35;14.50;;;16.10;62.50;;;;;;6020328;23;98086;-76
2023/04/06 10:51:39;;;;;;;17.08;13.57;;;16.30;60.80;;;;;;6045143;23;92439;-76
2023/04/06 10:54:07;;;;;;;18.38;13.68;;;16.50;61.40;;;;;;6094879;23;92430;-76
2023/04/06 10:56:38;;;;;;;17.60;14.18;;;16.70;61.20;;;;;;6044457;23;95645;-76
2023/04/06 10:59:07;;;;;;;16.42;14.73;;;16.90;60.70;;;;;;6095060;23;92962;-76
2023/04/06 11:01:34;;;;;;;15.88;13.38;;;17.10;60.70;;;;;;6095245;23;92490;-76
2023/04/06 11:04:01;;;;;;;18.85;16.20;;;17.00;60.50;;;;;;6095195;23;91647;-75
2023/04/06 11:06:31;;;;;;;19.05;15.20;;;17.00;58.20;;;;;;6094702;23;93423;-76
2023/04/06 11:08:58;;;;;;;20.58;17.90;;;17.10;59.30;;;;;;6044624;23;95686;-76
2023/04/06 11:11:26;;;;;;;19.15;16.27;;;17.20;60.00;;;;;;6067040;23;94834;-76
2023/04/06 11:13:59;;;;;;;18.50;16.33;;;17.20;59.70;;;;;;6068634;23;92404;-75
2023/04/06 11:16:28;;;;;;;19.45;15.77;;;17.40;60.00;;;;;;6067845;23;94149;-76
2023/04/06 11:18:59;;;;;;;21.48;17.05;;;17.30;58.80;;;;;;6094872;23;93006;-76
2023/04/06 11:21:39;;;;;;;19.08;17.08;;;17.30;59.00;;;;;;6095037;23;92348;-76
2023/04/06 11:24:16;;;;;;;19.60;17.50;;;17.50;58.80;;;;;;6068524;23;92535;-75
2023/04/06 11:26:51;;;;;;;20.73;16.58;;;17.50;58.60;;;;;;6094874;23;93113;-76
2023/04/06 11:29:19;;;;;;;20.92;18.63;;;17.60;60.00;;;;;;6095219;23;93083;-76
2023/04/06 11:31:52;;;;;;;19.38;16.55;;;17.70;59.10;;;;;;6044255;23;92375;-75
2023/04/06 11:34:23;;;;;;;23.48;18.02;;;17.80;58.40;;;;;;6094748;23;92431;-75
2023/04/06 11:36:58;;;;;;;18.98;16.90;;;17.90;57.70;;;;;;6093299;23;95589;-75
2023/04/06 11:39:27;;;;;;;19.08;16.95;;;17.80;56.30;;;;;;6068616;23;94324;-76
2023/04/06 11:42:03;;;;;;;21.55;17.95;;;17.60;57.10;;;;;;6094865;23;92466;-76
2023/04/06 11:44:45;;;;;;;20.73;18.60;;;17.90;57.10;;;;;;6094751;23;92877;-76
2023/04/06 11:47:13;;;;;;;19.02;17.05;;;17.90;56.80;;;;;;6094721;23;93655;-76
2023/04/06 11:49:42;;;;;;;18.65;16.17;;;17.90;57.10;;;;;;6068301;23;95541;-76
2023/04/06 11:52:16;;;;;;;21.20;18.33;;;17.90;55.60;;;;;;6094810;23;92324;-76
2023/04/06 11:54:43;;;;;;;21.73;19.10;;;18.10;56.30;;;;;;6095238;23;91651;-76
2023/04/06 11:57:10;;;;;;;19.60;17.50;;;18.10;55.10;;;;;;6094422;23;93094;-76
2023/04/06 11:59:37;;;;;;;20.15;17.95;;;18.10;55.30;;;;;;6094335;23;92821;-76
2023/04/06 12:02:04;;;;;;;22.88;18.73;;;18.10;54.80;;;;;;6093673;23;95297;-76
2023/04/06 12:04:32;;;;;;;23.52;17.65;;;18.20;54.80;;;;;;6094341;23;92370;-76
2023/04/06 12:06:59;;;;;;;18.35;16.45;;;18.30;55.10;;;;;;6068580;23;93089;-76
2023/04/06 12:09:26;;;;;;;18.35;16.50;;;18.30;54.40;;;;;;6068261;23;92931;-76
2023/04/06 12:11:53;;;;;;;19.00;17.00;;;18.20;54.90;;;;;;6094557;23;92386;-76
2023/04/06 12:14:20;;;;;;;20.65;17.58;;;18.20;55.10;;;;;;6068466;23;92432;-81
2023/04/06 12:16:47;;;;;;;21.42;18.67;;;17.90;53.90;;;;;;6068128;23;96284;-80
2023/04/06 12:19:15;;;;;;;23.33;19.23;;;17.90;55.40;;;;;;6070027;23;93068;-78
2023/04/06 12:21:42;;;;;;;21.52;18.20;;;17.70;55.50;;;;;;6045351;23;92496;-81
2023/04/06 12:24:09;;;;;;;21.42;19.13;;;17.70;56.40;;;;;;6045378;23;93043;-77
2023/04/06 12:26:37;;;;;;;23.27;20.77;;;17.80;56.00;;;;;;6067905;23;95721;-75
2023/04/06 12:29:07;;;;;;;21.17;18.40;;;17.80;55.70;;;;;;6069072;23;97910;-86
2023/04/06 12:31:44;;;;;;;21.33;19.02;;;17.60;55.80;;;;;;6045981;23;92485;-78
2023/04/06 12:34:11;;;;;;;22.30;19.80;;;17.40;56.80;;;;;;6095772;23;92372;-76
2023/04/06 12:36:39;;;;;;;22.63;19.63;;;17.50;57.00;;;;;;6069093;23;96746;-76
2023/04/06 12:39:06;;;;;;;21.50;18.45;;;17.60;57.10;;;;;;6069592;23;92863;-78
2023/04/06 12:41:33;;;;;;;20.95;18.75;;;17.40;56.60;;;;;;6045279;23;92504;-78
2023/04/06 12:44:00;;;;;;;22.05;18.95;;;17.50;57.50;;;;;;6070256;23;91775;-80
2023/04/06 12:46:29;;;;;;;23.92;18.23;;;17.40;56.80;;;;;;6045272;23;93238;-76
2023/04/06 12:48:58;;;;;;;23.23;20.25;;;17.30;57.00;;;;;;6069085;23;94735;-76
2023/04/06 12:51:28;;;;;;;21.75;18.15;;;17.40;56.90;;;;;;6043304;23;94802;-75
2023/04/06 12:53:55;;;;;;;24.20;19.48;;;17.40;57.00;;;;;;6044948;23;92544;-77
2023/04/06 12:56:22;;;;;;;22.98;18.88;;;17.40;57.20;;;;;;6068468;23;94112;-79